Haysville, Kansas
Current Conditions -  °F | °C
As of 4:58 PM on Thursday 27 Nov 2014 (Local Time) from KIAB Reporting Station
Clear Clear  
Wind Chill: 37°   Ceiling: Unl
Heat Index: 43°   Visibility: 10mi
Dew Point: 15°   Wind: 10mph
Humidity: 32%   Direction: 190°S
Pressure: 30.31"   Gusts: NA
Location:  37.56°N, 97.35°W
Report Text: KIAB 272258Z AUTO 19009KT 10SM CLR 06/M10 A3031 RMK AO2 SLP279 T00601097 $
Loading
Personal Weather Stations






























Interactive Weather Map New forecast layout! Learn more

10-Day Weather Forecast

Advertisements
Track Severe Weather on mobile